sensor_id;sensor_type;location;lat;lon;timestamp;P1;durP1;ratioP1;P2;durP2;ratioP2
69534;SDS011;56754;51.568;5.048;2023-01-30T00:01:05;18.40;;;11.03;;
69534;SDS011;56754;51.568;5.048;2023-01-30T00:03:31;21.37;;;11.43;;
69534;SDS011;56754;51.568;5.048;2023-01-30T00:05:57;16.27;;;10.70;;
69534;SDS011;56754;51.568;5.048;2023-01-30T00:08:22;20.47;;;12.13;;
69534;SDS011;56754;51.568;5.048;2023-01-30T00:10:47;17.60;;;10.57;;
69534;SDS011;56754;51.568;5.048;2023-01-30T00:13:13;19.13;;;11.57;;
69534;SDS011;56754;51.568;5.048;2023-01-30T00:15:39;18.30;;;10.63;;
69534;SDS011;56754;51.568;5.048;2023-01-30T00:18:05;20.27;;;11.05;;
69534;SDS011;56754;51.568;5.048;2023-01-30T00:20:30;21.37;;;11.33;;
69534;SDS011;56754;51.568;5.048;2023-01-30T00:22:56;19.48;;;10.63;;
69534;SDS011;56754;51.568;5.048;2023-01-30T00:25:22;16.50;;;10.23;;
69534;SDS011;56754;51.568;5.048;2023-01-30T00:27:48;17.90;;;10.00;;
69534;SDS011;56754;51.568;5.048;2023-01-30T00:30:14;22.70;;;11.05;;
69534;SDS011;56754;51.568;5.048;2023-01-30T00:32:39;18.63;;;11.43;;
69534;SDS011;56754;51.568;5.048;2023-01-30T00:35:04;17.93;;;10.20;;
69534;SDS011;56754;51.568;5.048;2023-01-30T00:37:30;20.88;;;11.55;;
69534;SDS011;56754;51.568;5.048;2023-01-30T00:39:55;20.60;;;11.67;;
69534;SDS011;56754;51.568;5.048;2023-01-30T00:42:21;21.10;;;11.53;;
69534;SDS011;56754;51.568;5.048;2023-01-30T00:44:46;20.20;;;11.23;;
69534;SDS011;56754;51.568;5.048;2023-01-30T00:47:11;18.17;;;10.33;;
69534;SDS011;56754;51.568;5.048;2023-01-30T00:49:37;20.10;;;11.70;;
69534;SDS011;56754;51.568;5.048;2023-01-30T00:52:02;18.67;;;10.10;;
69534;SDS011;56754;51.568;5.048;2023-01-30T00:54:28;21.47;;;10.87;;
69534;SDS011;56754;51.568;5.048;2023-01-30T00:56:53;18.02;;;10.40;;
69534;SDS011;56754;51.568;5.048;2023-01-30T00:59:19;18.67;;;10.73;;
69534;SDS011;56754;51.568;5.048;2023-01-30T01:01:44;18.13;;;10.60;;
69534;SDS011;56754;51.568;5.048;2023-01-30T01:04:10;16.30;;;10.00;;
69534;SDS011;56754;51.568;5.048;2023-01-30T01:06:36;19.63;;;10.65;;
69534;SDS011;56754;51.568;5.048;2023-01-30T01:09:02;16.55;;;10.05;;
69534;SDS011;56754;51.568;5.048;2023-01-30T01:11:27;16.13;;;10.60;;
69534;SDS011;56754;51.568;5.048;2023-01-30T01:13:53;18.73;;;10.23;;
69534;SDS011;56754;51.568;5.048;2023-01-30T01:16:21;19.95;;;10.35;;
69534;SDS011;56754;51.568;5.048;2023-01-30T01:18:47;16.67;;;10.07;;
69534;SDS011;56754;51.568;5.048;2023-01-30T01:21:13;15.32;;;9.45;;
69534;SDS011;56754;51.568;5.048;2023-01-30T01:23:38;16.30;;;9.60;;
69534;SDS011;56754;51.568;5.048;2023-01-30T01:26:04;17.67;;;10.30;;
69534;SDS011;56754;51.568;5.048;2023-01-30T01:28:29;15.23;;;8.97;;
69534;SDS011;56754;51.568;5.048;2023-01-30T01:30:54;14.90;;;8.70;;
69534;SDS011;56754;51.568;5.048;2023-01-30T01:33:20;15.07;;;9.37;;
69534;SDS011;56754;51.568;5.048;2023-01-30T01:35:45;17.07;;;8.90;;
69534;SDS011;56754;51.568;5.048;2023-01-30T01:38:10;16.07;;;8.97;;
69534;SDS011;56754;51.568;5.048;2023-01-30T01:40:35;15.57;;;8.03;;
69534;SDS011;56754;51.568;5.048;2023-01-30T01:43:01;14.43;;;8.43;;
69534;SDS011;56754;51.568;5.048;2023-01-30T01:45:28;14.68;;;8.30;;
69534;SDS011;56754;51.568;5.048;2023-01-30T01:51:12;14.67;;;7.97;;
69534;SDS011;56754;51.568;5.048;2023-01-30T01:53:22;15.98;;;7.80;;
69534;SDS011;56754;51.568;5.048;2023-01-30T01:55:53;14.13;;;8.13;;
69534;SDS011;56754;51.568;5.048;2023-01-30T02:00:49;17.25;;;8.05;;
69534;SDS011;56754;51.568;5.048;2023-01-30T02:03:16;15.83;;;7.67;;
69534;SDS011;56754;51.568;5.048;2023-01-30T02:05:47;15.90;;;7.50;;
69534;SDS011;56754;51.568;5.048;2023-01-30T02:08:18;14.98;;;7.65;;
69534;SDS011;56754;51.568;5.048;2023-01-30T02:13:14;12.52;;;6.07;;
69534;SDS011;56754;51.568;5.048;2023-01-30T02:15:39;14.00;;;7.07;;
69534;SDS011;56754;51.568;5.048;2023-01-30T02:18:05;10.90;;;6.77;;
69534;SDS011;56754;51.568;5.048;2023-01-30T02:25:55;10.03;;;5.77;;
69534;SDS011;56754;51.568;5.048;2023-01-30T02:33:29;10.32;;;5.70;;
69534;SDS011;56754;51.568;5.048;2023-01-30T02:38:29;10.03;;;5.60;;
69534;SDS011;56754;51.568;5.048;2023-01-30T02:44:58;10.97;;;4.77;;
69534;SDS011;56754;51.568;5.048;2023-01-30T02:47:18;8.40;;;4.30;;
69534;SDS011;56754;51.568;5.048;2023-01-30T02:49:59;9.68;;;4.63;;
69534;SDS011;56754;51.568;5.048;2023-01-30T02:52:31;8.35;;;4.10;;
69534;SDS011;56754;51.568;5.048;2023-01-30T02:54:57;9.00;;;3.90;;
69534;SDS011;56754;51.568;5.048;2023-01-30T02:57:23;12.27;;;4.20;;
69534;SDS011;56754;51.568;5.048;2023-01-30T02:59:51;10.77;;;4.30;;
69534;SDS011;56754;51.568;5.048;2023-01-30T03:13:19;8.73;;;3.78;;
69534;SDS011;56754;51.568;5.048;2023-01-30T03:15:52;6.88;;;3.55;;
69534;SDS011;56754;51.568;5.048;2023-01-30T03:18:26;8.33;;;3.87;;
69534;SDS011;56754;51.568;5.048;2023-01-30T03:20:52;7.82;;;3.72;;
69534;SDS011;56754;51.568;5.048;2023-01-30T03:23:17;8.33;;;3.60;;
69534;SDS011;56754;51.568;5.048;2023-01-30T03:25:43;8.20;;;3.60;;
69534;SDS011;56754;51.568;5.048;2023-01-30T03:28:10;10.07;;;3.17;;
69534;SDS011;56754;51.568;5.048;2023-01-30T03:30:38;9.73;;;3.30;;
69534;SDS011;56754;51.568;5.048;2023-01-30T03:33:03;8.20;;;3.33;;
69534;SDS011;56754;51.568;5.048;2023-01-30T03:35:28;9.33;;;3.50;;
69534;SDS011;56754;51.568;5.048;2023-01-30T03:37:54;8.43;;;3.20;;
69534;SDS011;56754;51.568;5.048;2023-01-30T03:40:19;6.47;;;3.10;;
69534;SDS011;56754;51.568;5.048;2023-01-30T03:42:44;7.80;;;3.43;;
69534;SDS011;56754;51.568;5.048;2023-01-30T03:45:10;7.03;;;2.90;;
69534;SDS011;56754;51.568;5.048;2023-01-30T03:47:36;9.50;;;3.35;;
69534;SDS011;56754;51.568;5.048;2023-01-30T03:50:01;7.23;;;3.37;;
69534;SDS011;56754;51.568;5.048;2023-01-30T03:52:27;7.57;;;3.30;;
69534;SDS011;56754;51.568;5.048;2023-01-30T03:54:52;9.27;;;3.20;;
69534;SDS011;56754;51.568;5.048;2023-01-30T03:57:17;8.03;;;3.10;;
69534;SDS011;56754;51.568;5.048;2023-01-30T03:59:43;8.20;;;3.60;;
69534;SDS011;56754;51.568;5.048;2023-01-30T04:02:08;10.10;;;3.20;;
69534;SDS011;56754;51.568;5.048;2023-01-30T04:04:34;7.33;;;2.77;;
69534;SDS011;56754;51.568;5.048;2023-01-30T04:06:59;9.90;;;3.63;;
69534;SDS011;56754;51.568;5.048;2023-01-30T04:09:24;8.80;;;3.20;;
69534;SDS011;56754;51.568;5.048;2023-01-30T04:11:50;7.90;;;2.90;;
69534;SDS011;56754;51.568;5.048;2023-01-30T04:14:15;8.37;;;3.10;;
69534;SDS011;56754;51.568;5.048;2023-01-30T04:16:41;11.65;;;3.20;;
69534;SDS011;56754;51.568;5.048;2023-01-30T04:19:06;9.47;;;3.10;;
69534;SDS011;56754;51.568;5.048;2023-01-30T04:21:31;8.10;;;2.87;;
69534;SDS011;56754;51.568;5.048;2023-01-30T04:23:57;7.43;;;2.90;;
69534;SDS011;56754;51.568;5.048;2023-01-30T04:26:22;8.20;;;3.00;;
69534;SDS011;56754;51.568;5.048;2023-01-30T04:28:47;8.50;;;2.90;;
69534;SDS011;56754;51.568;5.048;2023-01-30T04:31:12;8.27;;;3.20;;
69534;SDS011;56754;51.568;5.048;2023-01-30T04:33:38;8.02;;;2.80;;
69534;SDS011;56754;51.568;5.048;2023-01-30T04:36:04;8.17;;;2.27;;
69534;SDS011;56754;51.568;5.048;2023-01-30T04:38:30;8.93;;;2.50;;
69534;SDS011;56754;51.568;5.048;2023-01-30T04:40:56;7.47;;;2.33;;
69534;SDS011;56754;51.568;5.048;2023-01-30T04:43:23;11.03;;;2.40;;
69534;SDS011;56754;51.568;5.048;2023-01-30T04:45:49;6.00;;;2.17;;
69534;SDS011;56754;51.568;5.048;2023-01-30T04:48:15;7.70;;;2.13;;
69534;SDS011;56754;51.568;5.048;2023-01-30T04:50:42;9.73;;;2.13;;
69534;SDS011;56754;51.568;5.048;2023-01-30T04:53:08;9.88;;;2.33;;
69534;SDS011;56754;51.568;5.048;2023-01-30T04:55:34;6.43;;;2.00;;
69534;SDS011;56754;51.568;5.048;2023-01-30T04:58:00;7.15;;;1.92;;
69534;SDS011;56754;51.568;5.048;2023-01-30T05:00:26;7.53;;;2.13;;
69534;SDS011;56754;51.568;5.048;2023-01-30T05:02:52;7.80;;;2.00;;
69534;SDS011;56754;51.568;5.048;2023-01-30T05:05:17;5.90;;;1.93;;
69534;SDS011;56754;51.568;5.048;2023-01-30T05:07:43;7.93;;;2.03;;
69534;SDS011;56754;51.568;5.048;2023-01-30T05:10:08;8.03;;;1.80;;
69534;SDS011;56754;51.568;5.048;2023-01-30T05:12:34;8.55;;;2.05;;
69534;SDS011;56754;51.568;5.048;2023-01-30T05:14:59;6.93;;;1.97;;
69534;SDS011;56754;51.568;5.048;2023-01-30T05:17:25;8.97;;;2.00;;
69534;SDS011;56754;51.568;5.048;2023-01-30T05:19:50;8.50;;;1.80;;
69534;SDS011;56754;51.568;5.048;2023-01-30T05:22:15;6.73;;;1.90;;
69534;SDS011;56754;51.568;5.048;2023-01-30T05:24:41;9.13;;;2.10;;
69534;SDS011;56754;51.568;5.048;2023-01-30T05:27:06;6.00;;;1.70;;
69534;SDS011;56754;51.568;5.048;2023-01-30T05:29:31;7.53;;;2.10;;
69534;SDS011;56754;51.568;5.048;2023-01-30T05:31:56;6.67;;;1.70;;
69534;SDS011;56754;51.568;5.048;2023-01-30T05:34:22;7.97;;;2.20;;
69534;SDS011;56754;51.568;5.048;2023-01-30T05:36:47;6.13;;;1.80;;
69534;SDS011;56754;51.568;5.048;2023-01-30T05:39:14;8.20;;;1.83;;
69534;SDS011;56754;51.568;5.048;2023-01-30T05:41:39;8.83;;;2.20;;
69534;SDS011;56754;51.568;5.048;2023-01-30T05:44:04;8.50;;;1.50;;
69534;SDS011;56754;51.568;5.048;2023-01-30T05:46:30;8.80;;;2.00;;
69534;SDS011;56754;51.568;5.048;2023-01-30T05:48:55;6.75;;;1.60;;
69534;SDS011;56754;51.568;5.048;2023-01-30T05:51:22;7.43;;;1.47;;
69534;SDS011;56754;51.568;5.048;2023-01-30T05:53:49;7.80;;;1.70;;
69534;SDS011;56754;51.568;5.048;2023-01-30T05:56:16;7.03;;;1.60;;
69534;SDS011;56754;51.568;5.048;2023-01-30T05:58:42;6.45;;;1.42;;
69534;SDS011;56754;51.568;5.048;2023-01-30T06:01:13;9.02;;;1.60;;
69534;SDS011;56754;51.568;5.048;2023-01-30T06:03:38;8.27;;;1.90;;
69534;SDS011;56754;51.568;5.048;2023-01-30T06:06:04;8.13;;;1.50;;
69534;SDS011;56754;51.568;5.048;2023-01-30T06:08:30;8.65;;;1.58;;
69534;SDS011;56754;51.568;5.048;2023-01-30T06:11:00;8.00;;;1.90;;
69534;SDS011;56754;51.568;5.048;2023-01-30T06:13:27;9.27;;;1.70;;
69534;SDS011;56754;51.568;5.048;2023-01-30T06:15:52;8.30;;;1.38;;
69534;SDS011;56754;51.568;5.048;2023-01-30T06:18:17;8.97;;;1.63;;
69534;SDS011;56754;51.568;5.048;2023-01-30T06:20:47;7.37;;;1.60;;
69534;SDS011;56754;51.568;5.048;2023-01-30T06:23:13;9.75;;;1.75;;
69534;SDS011;56754;51.568;5.048;2023-01-30T06:25:41;9.20;;;1.70;;
69534;SDS011;56754;51.568;5.048;2023-01-30T06:28:08;7.82;;;1.50;;
69534;SDS011;56754;51.568;5.048;2023-01-30T06:30:33;7.77;;;1.70;;
69534;SDS011;56754;51.568;5.048;2023-01-30T06:32:58;9.60;;;1.60;;
69534;SDS011;56754;51.568;5.048;2023-01-30T06:35:23;13.35;;;1.73;;
69534;SDS011;56754;51.568;5.048;2023-01-30T06:37:49;8.20;;;1.57;;
69534;SDS011;56754;51.568;5.048;2023-01-30T06:40:14;9.83;;;1.40;;
69534;SDS011;56754;51.568;5.048;2023-01-30T06:42:46;10.77;;;1.37;;
69534;SDS011;56754;51.568;5.048;2023-01-30T06:45:12;8.95;;;1.50;;
69534;SDS011;56754;51.568;5.048;2023-01-30T06:47:59;6.25;;;1.23;;
69534;SDS011;56754;51.568;5.048;2023-01-30T06:50:26;5.45;;;1.00;;
69534;SDS011;56754;51.568;5.048;2023-01-30T06:52:52;9.38;;;1.38;;
69534;SDS011;56754;51.568;5.048;2023-01-30T06:55:19;6.93;;;1.30;;
69534;SDS011;56754;51.568;5.048;2023-01-30T06:57:46;9.27;;;1.23;;
69534;SDS011;56754;51.568;5.048;2023-01-30T07:00:16;6.13;;;0.93;;
69534;SDS011;56754;51.568;5.048;2023-01-30T07:02:43;7.03;;;1.20;;
69534;SDS011;56754;51.568;5.048;2023-01-30T07:05:09;11.07;;;1.50;;
69534;SDS011;56754;51.568;5.048;2023-01-30T07:07:35;7.50;;;1.00;;
69534;SDS011;56754;51.568;5.048;2023-01-30T07:10:01;8.40;;;1.25;;
69534;SDS011;56754;51.568;5.048;2023-01-30T07:12:27;9.52;;;1.65;;
69534;SDS011;56754;51.568;5.048;2023-01-30T07:14:53;6.73;;;0.93;;
69534;SDS011;56754;51.568;5.048;2023-01-30T07:17:19;6.10;;;1.07;;
69534;SDS011;56754;51.568;5.048;2023-01-30T07:19:45;8.55;;;1.00;;
69534;SDS011;56754;51.568;5.048;2023-01-30T07:22:10;8.82;;;1.20;;
69534;SDS011;56754;51.568;5.048;2023-01-30T07:24:37;7.10;;;1.05;;
69534;SDS011;56754;51.568;5.048;2023-01-30T07:27:02;5.80;;;1.10;;
69534;SDS011;56754;51.568;5.048;2023-01-30T07:29:27;7.27;;;1.10;;
69534;SDS011;56754;51.568;5.048;2023-01-30T07:31:53;11.10;;;1.20;;
69534;SDS011;56754;51.568;5.048;2023-01-30T07:34:18;8.70;;;1.10;;
69534;SDS011;56754;51.568;5.048;2023-01-30T07:36:43;10.00;;;1.30;;
69534;SDS011;56754;51.568;5.048;2023-01-30T07:39:09;11.40;;;1.10;;
69534;SDS011;56754;51.568;5.048;2023-01-30T07:41:34;9.20;;;1.60;;
69534;SDS011;56754;51.568;5.048;2023-01-30T07:44:00;8.90;;;1.20;;
69534;SDS011;56754;51.568;5.048;2023-01-30T07:46:26;8.50;;;1.40;;
69534;SDS011;56754;51.568;5.048;2023-01-30T07:48:51;9.87;;;1.43;;
69534;SDS011;56754;51.568;5.048;2023-01-30T07:51:16;10.40;;;1.30;;
69534;SDS011;56754;51.568;5.048;2023-01-30T07:53:42;8.70;;;1.20;;
69534;SDS011;56754;51.568;5.048;2023-01-30T07:56:07;10.40;;;1.00;;
69534;SDS011;56754;51.568;5.048;2023-01-30T07:58:33;6.72;;;1.20;;
69534;SDS011;56754;51.568;5.048;2023-01-30T08:00:59;7.87;;;1.07;;
69534;SDS011;56754;51.568;5.048;2023-01-30T08:03:24;8.00;;;1.30;;
69534;SDS011;56754;51.568;5.048;2023-01-30T08:05:49;8.83;;;1.40;;
69534;SDS011;56754;51.568;5.048;2023-01-30T08:08:15;8.30;;;1.10;;
69534;SDS011;56754;51.568;5.048;2023-01-30T08:10:40;11.18;;;1.05;;
69534;SDS011;56754;51.568;5.048;2023-01-30T08:13:06;6.67;;;0.83;;
69534;SDS011;56754;51.568;5.048;2023-01-30T08:15:31;6.00;;;0.73;;
69534;SDS011;56754;51.568;5.048;2023-01-30T08:17:56;6.43;;;1.00;;
69534;SDS011;56754;51.568;5.048;2023-01-30T08:20:22;6.50;;;0.83;;
69534;SDS011;56754;51.568;5.048;2023-01-30T08:22:48;7.15;;;1.10;;
69534;SDS011;56754;51.568;5.048;2023-01-30T08:25:13;8.17;;;1.00;;
69534;SDS011;56754;51.568;5.048;2023-01-30T08:27:39;11.37;;;1.20;;
69534;SDS011;56754;51.568;5.048;2023-01-30T08:30:04;6.67;;;1.10;;
69534;SDS011;56754;51.568;5.048;2023-01-30T08:32:30;9.65;;;1.27;;
69534;SDS011;56754;51.568;5.048;2023-01-30T08:34:55;10.53;;;1.10;;
69534;SDS011;56754;51.568;5.048;2023-01-30T08:37:21;9.33;;;1.33;;
69534;SDS011;56754;51.568;5.048;2023-01-30T08:39:46;8.83;;;1.03;;
69534;SDS011;56754;51.568;5.048;2023-01-30T08:42:11;8.80;;;1.50;;
69534;SDS011;56754;51.568;5.048;2023-01-30T08:44:36;8.70;;;1.30;;
69534;SDS011;56754;51.568;5.048;2023-01-30T08:47:02;6.93;;;1.07;;
69534;SDS011;56754;51.568;5.048;2023-01-30T08:49:27;7.55;;;1.45;;
69534;SDS011;56754;51.568;5.048;2023-01-30T08:51:52;7.80;;;1.20;;
69534;SDS011;56754;51.568;5.048;2023-01-30T08:54:18;9.10;;;1.47;;
69534;SDS011;56754;51.568;5.048;2023-01-30T08:56:43;8.73;;;1.07;;
69534;SDS011;56754;51.568;5.048;2023-01-30T08:59:08;9.03;;;1.30;;
69534;SDS011;56754;51.568;5.048;2023-01-30T09:01:34;6.87;;;1.13;;
69534;SDS011;56754;51.568;5.048;2023-01-30T09:03:59;7.45;;;1.40;;
69534;SDS011;56754;51.568;5.048;2023-01-30T09:06:24;6.30;;;1.00;;
69534;SDS011;56754;51.568;5.048;2023-01-30T09:08:50;11.90;;;1.20;;
69534;SDS011;56754;51.568;5.048;2023-01-30T09:11:16;10.10;;;1.60;;
69534;SDS011;56754;51.568;5.048;2023-01-30T09:13:41;7.13;;;1.05;;
69534;SDS011;56754;51.568;5.048;2023-01-30T09:16:06;5.60;;;0.93;;
69534;SDS011;56754;51.568;5.048;2023-01-30T09:18:32;8.93;;;1.30;;
69534;SDS011;56754;51.568;5.048;2023-01-30T09:21:03;10.37;;;1.27;;
69534;SDS011;56754;51.568;5.048;2023-01-30T09:23:29;6.80;;;0.95;;
69534;SDS011;56754;51.568;5.048;2023-01-30T09:25:54;8.10;;;1.07;;
69534;SDS011;56754;51.568;5.048;2023-01-30T09:28:19;7.67;;;1.20;;
69534;SDS011;56754;51.568;5.048;2023-01-30T09:30:45;8.05;;;0.88;;
69534;SDS011;56754;51.568;5.048;2023-01-30T09:33:10;7.30;;;1.00;;
69534;SDS011;56754;51.568;5.048;2023-01-30T09:35:35;9.23;;;1.80;;
69534;SDS011;56754;51.568;5.048;2023-01-30T09:38:01;7.27;;;1.20;;
69534;SDS011;56754;51.568;5.048;2023-01-30T09:40:27;8.33;;;1.27;;
69534;SDS011;56754;51.568;5.048;2023-01-30T09:43:02;8.73;;;1.30;;
69534;SDS011;56754;51.568;5.048;2023-01-30T09:48:33;8.93;;;1.53;;
69534;SDS011;56754;51.568;5.048;2023-01-30T09:56:56;7.10;;;1.02;;
69534;SDS011;56754;51.568;5.048;2023-01-30T09:59:28;6.05;;;0.93;;
69534;SDS011;56754;51.568;5.048;2023-01-30T10:04:34;7.75;;;1.33;;
69534;SDS011;56754;51.568;5.048;2023-01-30T10:07:28;9.02;;;1.00;;
69534;SDS011;56754;51.568;5.048;2023-01-30T10:12:38;9.73;;;1.37;;
69534;SDS011;56754;51.568;5.048;2023-01-30T10:26:11;10.43;;;1.13;;
69534;SDS011;56754;51.568;5.048;2023-01-30T10:31:25;7.93;;;1.20;;
69534;SDS011;56754;51.568;5.048;2023-01-30T10:36:40;11.13;;;1.42;;
69534;SDS011;56754;51.568;5.048;2023-01-30T10:42:25;10.82;;;1.02;;
69534;SDS011;56754;51.568;5.048;2023-01-30T10:44:59;8.77;;;1.33;;
69534;SDS011;56754;51.568;5.048;2023-01-30T10:51:02;6.97;;;1.10;;
69534;SDS011;56754;51.568;5.048;2023-01-30T10:56:25;8.10;;;1.48;;
69534;SDS011;56754;51.568;5.048;2023-01-30T11:01:43;8.20;;;1.48;;
69534;SDS011;56754;51.568;5.048;2023-01-30T11:04:16;8.88;;;1.20;;
69534;SDS011;56754;51.568;5.048;2023-01-30T11:06:46;10.15;;;1.48;;
69534;SDS011;56754;51.568;5.048;2023-01-30T11:09:12;12.10;;;1.60;;
69534;SDS011;56754;51.568;5.048;2023-01-30T11:11:55;9.90;;;1.40;;
69534;SDS011;56754;51.568;5.048;2023-01-30T11:14:20;8.23;;;1.33;;
69534;SDS011;56754;51.568;5.048;2023-01-30T11:19:17;9.73;;;1.30;;
69534;SDS011;56754;51.568;5.048;2023-01-30T11:21:51;11.37;;;1.20;;
69534;SDS011;56754;51.568;5.048;2023-01-30T11:24:22;10.40;;;1.30;;
69534;SDS011;56754;51.568;5.048;2023-01-30T11:26:55;9.70;;;1.42;;
69534;SDS011;56754;51.568;5.048;2023-01-30T11:29:33;13.10;;;1.83;;
69534;SDS011;56754;51.568;5.048;2023-01-30T11:32:02;8.43;;;1.30;;
69534;SDS011;56754;51.568;5.048;2023-01-30T11:34:29;9.07;;;1.40;;
69534;SDS011;56754;51.568;5.048;2023-01-30T11:37:10;10.13;;;1.30;;
69534;SDS011;56754;51.568;5.048;2023-01-30T11:39:56;10.95;;;1.40;;
69534;SDS011;56754;51.568;5.048;2023-01-30T11:42:28;11.53;;;1.10;;
69534;SDS011;56754;51.568;5.048;2023-01-30T11:44:56;8.57;;;1.30;;
69534;SDS011;56754;51.568;5.048;2023-01-30T11:47:24;9.05;;;1.30;;
69534;SDS011;56754;51.568;5.048;2023-01-30T11:49:53;9.13;;;1.48;;
69534;SDS011;56754;51.568;5.048;2023-01-30T11:52:24;8.63;;;1.17;;
69534;SDS011;56754;51.568;5.048;2023-01-30T11:54:52;9.38;;;1.23;;
69534;SDS011;56754;51.568;5.048;2023-01-30T11:57:22;14.32;;;1.52;;
69534;SDS011;56754;51.568;5.048;2023-01-30T11:59:48;10.43;;;1.33;;
69534;SDS011;56754;51.568;5.048;2023-01-30T12:02:24;10.75;;;1.50;;
69534;SDS011;56754;51.568;5.048;2023-01-30T12:04:56;7.43;;;1.30;;
69534;SDS011;56754;51.568;5.048;2023-01-30T12:07:26;9.80;;;1.33;;
69534;SDS011;56754;51.568;5.048;2023-01-30T12:09:56;8.27;;;1.25;;
69534;SDS011;56754;51.568;5.048;2023-01-30T12:17:41;12.52;;;1.40;;
69534;SDS011;56754;51.568;5.048;2023-01-30T12:22:58;11.85;;;1.27;;
69534;SDS011;56754;51.568;5.048;2023-01-30T12:28:28;12.00;;;1.30;;
69534;SDS011;56754;51.568;5.048;2023-01-30T12:33:43;9.43;;;1.40;;
69534;SDS011;56754;51.568;5.048;2023-01-30T12:47:37;11.13;;;1.40;;
69534;SDS011;56754;51.568;5.048;2023-01-30T13:04:11;12.25;;;1.73;;
69534;SDS011;56754;51.568;5.048;2023-01-30T13:12:19;9.90;;;1.35;;
69534;SDS011;56754;51.568;5.048;2023-01-30T13:17:49;8.70;;;1.17;;
69534;SDS011;56754;51.568;5.048;2023-01-30T13:23:03;13.03;;;1.57;;
69534;SDS011;56754;51.568;5.048;2023-01-30T13:25:40;12.98;;;1.60;;
69534;SDS011;56754;51.568;5.048;2023-01-30T13:28:28;10.23;;;1.52;;
69534;SDS011;56754;51.568;5.048;2023-01-30T13:30:59;9.48;;;1.00;;
69534;SDS011;56754;51.568;5.048;2023-01-30T13:33:30;10.32;;;1.52;;
69534;SDS011;56754;51.568;5.048;2023-01-30T13:38:35;8.75;;;1.02;;
69534;SDS011;56754;51.568;5.048;2023-01-30T13:41:07;11.32;;;1.63;;
69534;SDS011;56754;51.568;5.048;2023-01-30T13:43:37;10.50;;;1.35;;
69534;SDS011;56754;51.568;5.048;2023-01-30T13:46:08;13.32;;;1.60;;
69534;SDS011;56754;51.568;5.048;2023-01-30T13:48:41;8.53;;;1.20;;
69534;SDS011;56754;51.568;5.048;2023-01-30T13:53:42;14.82;;;2.00;;
69534;SDS011;56754;51.568;5.048;2023-01-30T13:59:07;10.00;;;1.48;;
69534;SDS011;56754;51.568;5.048;2023-01-30T14:07:11;14.73;;;2.38;;
69534;SDS011;56754;51.568;5.048;2023-01-30T14:09:47;10.25;;;1.60;;
69534;SDS011;56754;51.568;5.048;2023-01-30T14:12:19;11.75;;;1.67;;
69534;SDS011;56754;51.568;5.048;2023-01-30T14:14:58;13.67;;;1.80;;
69534;SDS011;56754;51.568;5.048;2023-01-30T14:17:27;14.85;;;1.90;;
69534;SDS011;56754;51.568;5.048;2023-01-30T14:20:00;14.73;;;2.17;;
69534;SDS011;56754;51.568;5.048;2023-01-30T14:27:52;13.10;;;1.67;;
69534;SDS011;56754;51.568;5.048;2023-01-30T14:32:55;12.55;;;1.70;;
69534;SDS011;56754;51.568;5.048;2023-01-30T14:35:25;15.10;;;1.90;;
69534;SDS011;56754;51.568;5.048;2023-01-30T14:38:03;11.60;;;1.57;;
69534;SDS011;56754;51.568;5.048;2023-01-30T14:40:35;14.13;;;1.73;;
69534;SDS011;56754;51.568;5.048;2023-01-30T14:51:13;10.80;;;1.77;;
69534;SDS011;56754;51.568;5.048;2023-01-30T14:56:44;11.93;;;2.05;;
69534;SDS011;56754;51.568;5.048;2023-01-30T14:59:24;11.35;;;1.60;;
69534;SDS011;56754;51.568;5.048;2023-01-30T15:27:14;12.70;;;1.90;;
69534;SDS011;56754;51.568;5.048;2023-01-30T15:32:48;11.00;;;1.70;;
69534;SDS011;56754;51.568;5.048;2023-01-30T15:35:30;12.65;;;2.08;;
69534;SDS011;56754;51.568;5.048;2023-01-30T15:37:56;11.27;;;1.47;;
69534;SDS011;56754;51.568;5.048;2023-01-30T15:40:23;10.60;;;1.70;;
69534;SDS011;56754;51.568;5.048;2023-01-30T15:50:19;9.27;;;1.57;;
69534;SDS011;56754;51.568;5.048;2023-01-30T15:52:45;9.25;;;1.85;;
69534;SDS011;56754;51.568;5.048;2023-01-30T15:55:19;12.00;;;1.70;;
69534;SDS011;56754;51.568;5.048;2023-01-30T15:57:55;10.77;;;1.40;;
69534;SDS011;56754;51.568;5.048;2023-01-30T16:00:28;9.13;;;1.23;;
69534;SDS011;56754;51.568;5.048;2023-01-30T16:02:57;10.43;;;1.80;;
69534;SDS011;56754;51.568;5.048;2023-01-30T16:05:25;10.63;;;1.38;;
69534;SDS011;56754;51.568;5.048;2023-01-30T16:07:52;9.10;;;1.83;;
69534;SDS011;56754;51.568;5.048;2023-01-30T16:10:20;11.48;;;1.65;;
69534;SDS011;56754;51.568;5.048;2023-01-30T16:12:48;10.65;;;1.60;;
69534;SDS011;56754;51.568;5.048;2023-01-30T16:20:48;11.57;;;1.90;;
69534;SDS011;56754;51.568;5.048;2023-01-30T16:23:18;10.07;;;1.65;;
69534;SDS011;56754;51.568;5.048;2023-01-30T16:25:47;9.85;;;1.55;;
69534;SDS011;56754;51.568;5.048;2023-01-30T16:28:18;13.20;;;1.90;;
69534;SDS011;56754;51.568;5.048;2023-01-30T16:30:44;7.90;;;1.65;;
69534;SDS011;56754;51.568;5.048;2023-01-30T16:33:11;10.43;;;1.40;;
69534;SDS011;56754;51.568;5.048;2023-01-30T16:35:44;12.80;;;1.40;;
69534;SDS011;56754;51.568;5.048;2023-01-30T16:38:27;10.65;;;1.70;;
69534;SDS011;56754;51.568;5.048;2023-01-30T16:40:53;8.82;;;1.50;;
69534;SDS011;56754;51.568;5.048;2023-01-30T16:43:19;12.63;;;1.70;;
69534;SDS011;56754;51.568;5.048;2023-01-30T16:50:41;9.23;;;1.60;;
69534;SDS011;56754;51.568;5.048;2023-01-30T16:53:11;12.23;;;1.83;;
69534;SDS011;56754;51.568;5.048;2023-01-30T16:55:38;11.23;;;1.73;;
69534;SDS011;56754;51.568;5.048;2023-01-30T16:58:03;11.63;;;1.57;;
69534;SDS011;56754;51.568;5.048;2023-01-30T17:00:33;10.35;;;1.77;;
69534;SDS011;56754;51.568;5.048;2023-01-30T17:03:01;12.35;;;1.88;;
69534;SDS011;56754;51.568;5.048;2023-01-30T17:05:36;9.57;;;1.77;;
69534;SDS011;56754;51.568;5.048;2023-01-30T17:08:04;13.07;;;1.80;;
69534;SDS011;56754;51.568;5.048;2023-01-30T17:13:00;10.82;;;2.03;;
69534;SDS011;56754;51.568;5.048;2023-01-30T17:15:32;11.23;;;1.80;;
69534;SDS011;56754;51.568;5.048;2023-01-30T17:18:01;10.43;;;1.50;;
69534;SDS011;56754;51.568;5.048;2023-01-30T17:20:31;11.40;;;1.80;;
69534;SDS011;56754;51.568;5.048;2023-01-30T17:23:02;11.25;;;2.05;;
69534;SDS011;56754;51.568;5.048;2023-01-30T17:25:32;13.52;;;1.80;;
69534;SDS011;56754;51.568;5.048;2023-01-30T17:28:03;10.60;;;1.57;;
69534;SDS011;56754;51.568;5.048;2023-01-30T17:30:29;15.30;;;2.00;;
69534;SDS011;56754;51.568;5.048;2023-01-30T17:32:55;10.57;;;1.70;;
69534;SDS011;56754;51.568;5.048;2023-01-30T17:35:20;11.25;;;1.60;;
69534;SDS011;56754;51.568;5.048;2023-01-30T17:37:45;12.83;;;1.90;;
69534;SDS011;56754;51.568;5.048;2023-01-30T17:40:18;11.07;;;2.00;;
69534;SDS011;56754;51.568;5.048;2023-01-30T17:42:47;12.80;;;1.92;;
69534;SDS011;56754;51.568;5.048;2023-01-30T17:45:12;10.57;;;1.27;;
69534;SDS011;56754;51.568;5.048;2023-01-30T17:47:38;8.37;;;1.70;;
69534;SDS011;56754;51.568;5.048;2023-01-30T17:50:03;12.07;;;1.97;;
69534;SDS011;56754;51.568;5.048;2023-01-30T17:52:29;9.68;;;1.67;;
69534;SDS011;56754;51.568;5.048;2023-01-30T17:54:54;10.60;;;1.90;;
69534;SDS011;56754;51.568;5.048;2023-01-30T17:57:19;9.50;;;1.70;;
69534;SDS011;56754;51.568;5.048;2023-01-30T17:59:44;13.30;;;1.87;;
69534;SDS011;56754;51.568;5.048;2023-01-30T18:02:10;13.03;;;1.87;;
69534;SDS011;56754;51.568;5.048;2023-01-30T18:04:35;10.40;;;1.90;;
69534;SDS011;56754;51.568;5.048;2023-01-30T18:07:01;10.10;;;1.60;;
69534;SDS011;56754;51.568;5.048;2023-01-30T18:09:28;9.80;;;1.90;;
69534;SDS011;56754;51.568;5.048;2023-01-30T18:11:54;11.43;;;1.65;;
69534;SDS011;56754;51.568;5.048;2023-01-30T18:14:20;12.07;;;1.90;;
69534;SDS011;56754;51.568;5.048;2023-01-30T18:16:45;9.48;;;1.58;;